createdAt,value
2017-08-08T00:00:18.713Z,76.06
2017-08-08T00:01:18.691Z,76.15
2017-08-08T00:02:18.669Z,75.96
2017-08-08T00:03:18.647Z,75.96
2017-08-08T00:04:18.652Z,76.35
2017-08-08T00:05:18.605Z,76.54
2017-08-08T00:06:18.581Z,76.54
2017-08-08T00:07:18.563Z,76.44
2017-08-08T00:08:18.543Z,76.25
2017-08-08T00:09:18.520Z,76.44
2017-08-08T00:10:18.496Z,76.64
2017-08-08T00:11:18.178Z,76.44
2017-08-08T00:12:18.452Z,76.44
2017-08-08T00:13:18.436Z,76.25
2017-08-08T00:14:18.415Z,76.54
2017-08-08T00:15:18.389Z,75.96
2017-08-08T00:16:18.373Z,76.15
2017-08-08T00:17:18.346Z,75.96
2017-08-08T00:18:18.328Z,76.25
2017-08-08T00:19:18.306Z,76.25
2017-08-08T00:20:18.285Z,76.25
2017-08-08T00:21:18.263Z,76.25
2017-08-08T00:22:18.241Z,76.25
2017-08-08T00:23:18.221Z,76.25
2017-08-08T00:24:18.209Z,76.25
2017-08-08T00:25:17.898Z,76.06
2017-08-08T00:26:18.155Z,76.25
2017-08-08T00:27:17.837Z,76.06
2017-08-08T00:28:18.115Z,76.06
2017-08-08T00:29:17.794Z,76.06
2017-08-08T00:30:18.066Z,76.25
2017-08-08T00:31:18.050Z,76.15
2017-08-08T00:32:18.026Z,75.77
2017-08-08T00:33:18.003Z,76.25
2017-08-08T00:34:17.981Z,75.87
2017-08-08T00:35:17.963Z,75.77
2017-08-08T00:36:17.940Z,76.15
2017-08-08T00:37:17.920Z,76.25
2017-08-08T00:38:17.905Z,76.25
2017-08-08T00:39:17.877Z,76.06
2017-08-08T00:40:17.857Z,76.06
2017-08-08T00:41:17.833Z,76.06
2017-08-08T00:42:17.518Z,75.96
2017-08-08T00:43:17.791Z,76.25
2017-08-08T00:44:17.769Z,76.15
2017-08-08T00:45:17.750Z,76.06
2017-08-08T00:46:17.727Z,76.44
2017-08-08T00:47:17.709Z,76.35
2017-08-08T00:48:17.684Z,76.35
2017-08-08T00:49:17.661Z,76.54
2017-08-08T00:50:17.344Z,76.64
2017-08-08T00:51:17.623Z,76.64
2017-08-08T00:52:17.599Z,76.54
2017-08-08T00:53:17.578Z,76.44
2017-08-08T00:54:17.559Z,76.64
2017-08-08T00:55:17.532Z,77.11
2017-08-08T00:56:17.510Z,77.21
2017-08-08T00:57:17.494Z,76.92
2017-08-08T00:58:17.467Z,77.5
2017-08-08T00:59:17.450Z,77.02
2017-08-08T01:00:17.428Z,77.59
2017-08-08T01:01:17.405Z,77.31
2017-08-08T01:02:17.383Z,77.31
2017-08-08T01:03:17.361Z,77.78
2017-08-08T01:04:17.348Z,77.69
2017-08-08T01:05:17.319Z,77.78
2017-08-08T01:06:17.006Z,78.42
2017-08-08T01:07:16.987Z,78.07
2017-08-08T01:08:17.257Z,78.03
2017-08-08T01:09:17.240Z,78.61
2017-08-08T01:10:17.213Z,78.42
2017-08-08T01:11:17.191Z,78.99
2017-08-08T01:12:17.171Z,78.99
2017-08-08T01:13:17.152Z,78.89
2017-08-08T01:14:17.126Z,79.28
2017-08-08T01:15:17.110Z,79.08
2017-08-08T01:16:17.082Z,79.37
2017-08-08T01:17:17.066Z,79.28
2017-08-08T01:18:16.744Z,79.66
2017-08-08T01:19:17.022Z,79.37
2017-08-08T01:20:17.001Z,79.47
2017-08-08T01:21:16.978Z,79.66
2017-08-08T01:22:16.954Z,79.66
2017-08-08T01:23:16.633Z,79.75
2017-08-08T01:24:16.913Z,79.75
2017-08-08T01:25:16.590Z,80.24
2017-08-08T01:26:16.879Z,80.04
2017-08-08T01:27:16.552Z,80.38
2017-08-08T01:28:16.821Z,80.52
2017-08-08T01:29:16.807Z,80.52
2017-08-08T01:30:16.779Z,80.24
2017-08-08T01:31:16.758Z,80.67
2017-08-08T01:32:16.737Z,80.1
2017-08-08T01:33:16.714Z,80.62
2017-08-08T01:34:16.691Z,80.67
2017-08-08T01:35:16.677Z,80.87
2017-08-08T01:36:16.648Z,80.96
2017-08-08T01:37:16.625Z,80.58
2017-08-08T01:38:16.603Z,81.25
2017-08-08T01:39:16.579Z,81.25
2017-08-08T01:40:16.558Z,81.44
2017-08-08T01:41:16.536Z,81.25
2017-08-08T01:42:16.514Z,81.15
2017-08-08T01:43:16.197Z,81.54
2017-08-08T01:44:16.475Z,81.92
2017-08-08T01:45:16.451Z,81.82
2017-08-08T01:46:16.429Z,81.92
2017-08-08T01:47:16.412Z,82.3
2017-08-08T01:48:16.383Z,81.92
2017-08-08T01:49:16.360Z,82.49
2017-08-08T01:50:16.340Z,82.49
2017-08-08T01:51:16.319Z,82.4
2017-08-08T01:52:16.294Z,82.49
2017-08-08T01:53:16.315Z,82.49
2017-08-08T01:54:16.254Z,82.78
2017-08-08T01:55:16.224Z,82.45
2017-08-08T01:56:16.205Z,82.54
2017-08-08T01:57:16.184Z,83.36
2017-08-08T01:58:15.864Z,83.6
2017-08-08T01:59:16.137Z,83.5
2017-08-08T02:00:16.117Z,83.5
2017-08-08T02:01:16.095Z,83.31
2017-08-08T02:02:16.073Z,83.4
2017-08-08T02:03:16.050Z,83.79
2017-08-08T02:04:16.029Z,83.69
2017-08-08T02:05:16.002Z,84.36
2017-08-08T02:06:15.983Z,83.89
2017-08-08T02:07:15.957Z,84.17
2017-08-08T02:08:15.935Z,84.27
2017-08-08T02:09:15.914Z,83.69
2017-08-08T02:10:15.892Z,84.27
2017-08-08T02:11:15.872Z,83.69
2017-08-08T02:12:15.844Z,83.5
2017-08-08T02:13:15.975Z,84.08
2017-08-08T02:14:15.809Z,84.65
2017-08-08T02:15:15.778Z,83.4
2017-08-08T02:16:15.755Z,83.79
2017-08-08T02:17:15.732Z,83.79
2017-08-08T02:18:15.711Z,83.79
2017-08-08T02:19:15.688Z,84.08
2017-08-08T02:20:15.666Z,84.46
2017-08-08T02:21:15.646Z,84.55
2017-08-08T02:22:15.629Z,84.46
2017-08-08T02:23:15.600Z,84.17
2017-08-08T02:24:15.575Z,84.27
2017-08-08T02:25:15.556Z,84.08
2017-08-08T02:26:15.236Z,84.27
2017-08-08T02:27:15.508Z,84.46
2017-08-08T02:28:15.488Z,84.36
2017-08-08T02:29:15.462Z,84.27
2017-08-08T02:30:15.441Z,84.08
2017-08-08T02:31:15.418Z,84.27
2017-08-08T02:32:15.398Z,84.65
2017-08-08T02:33:15.374Z,84.46
2017-08-08T02:34:15.357Z,84.75
2017-08-08T02:35:15.329Z,84.84
2017-08-08T02:36:15.307Z,84.65
2017-08-08T02:37:15.286Z,84.94
2017-08-08T02:38:14.967Z,85.13
2017-08-08T02:39:14.943Z,84.94
2017-08-08T02:40:14.923Z,85.03
2017-08-08T02:41:15.198Z,85.32
2017-08-08T02:42:15.172Z,84.84
2017-08-08T02:43:15.150Z,84.75
2017-08-08T02:44:15.129Z,84.84
2017-08-08T02:45:14.809Z,84.94
2017-08-08T02:46:15.084Z,84.84
2017-08-08T02:47:15.062Z,85.32
2017-08-08T02:48:15.039Z,85.13
2017-08-08T02:49:15.023Z,84.84
2017-08-08T02:50:14.993Z,85.41
2017-08-08T02:51:14.972Z,85.71
2017-08-08T02:52:14.951Z,85.41
2017-08-08T02:53:14.929Z,85.51
2017-08-08T02:54:14.609Z,85.71
2017-08-08T02:55:14.586Z,85.41
2017-08-08T02:56:14.563Z,85.41
2017-08-08T02:57:14.537Z,85.41
2017-08-08T02:58:14.815Z,85.32
2017-08-08T02:59:14.792Z,85.89
2017-08-08T03:00:14.471Z,85.8
2017-08-08T03:01:14.748Z,85.61
2017-08-08T03:02:14.727Z,85.89
2017-08-08T03:03:14.700Z,85.89
2017-08-08T03:04:14.379Z,85.89
2017-08-08T03:05:14.653Z,86.14
2017-08-08T03:06:14.631Z,86.37
2017-08-08T03:07:14.621Z,86.14
2017-08-08T03:08:14.590Z,86.14
2017-08-08T03:09:14.571Z,86.33
2017-08-08T03:10:14.543Z,86.08
2017-08-08T03:11:14.524Z,86.23
2017-08-08T03:12:14.495Z,86.23
2017-08-08T03:13:14.476Z,86.33
2017-08-08T03:14:14.449Z,86.14
2017-08-08T03:15:14.433Z,85.99
2017-08-08T03:16:14.408Z,86.37
2017-08-08T03:17:14.381Z,85.99
2017-08-08T03:18:14.362Z,85.99
2017-08-08T03:19:14.343Z,85.99
2017-08-08T03:20:14.315Z,85.99
2017-08-08T03:21:14.293Z,85.89
2017-08-08T03:22:14.268Z,86.18
2017-08-08T03:23:14.248Z,86.47
2017-08-08T03:24:13.929Z,85.99
2017-08-08T03:25:14.204Z,86.18
2017-08-08T03:26:14.178Z,86.08
2017-08-08T03:27:14.155Z,86.18
2017-08-08T03:28:14.134Z,86.08
2017-08-08T03:29:14.113Z,86.28
2017-08-08T03:30:14.092Z,86.08
2017-08-08T03:31:13.772Z,86.18
2017-08-08T03:32:14.047Z,86.28
2017-08-08T03:33:14.020Z,86.18
2017-08-08T03:34:13.998Z,86.18
2017-08-08T03:35:13.977Z,86.28
2017-08-08T03:36:13.955Z,86.28
2017-08-08T03:37:13.932Z,85.99
2017-08-08T03:38:13.908Z,86.18
2017-08-08T03:39:13.889Z,86.28
2017-08-08T03:40:13.866Z,86.28
2017-08-08T03:41:13.840Z,86.28
2017-08-08T03:42:13.818Z,86.18
2017-08-08T03:43:13.796Z,86.28
2017-08-08T03:44:13.771Z,86.18
2017-08-08T03:45:13.753Z,86.28
2017-08-08T03:46:13.731Z,86.28
2017-08-08T03:47:13.702Z,85.8
2017-08-08T03:48:13.685Z,85.8
2017-08-08T03:49:13.663Z,85.71
2017-08-08T03:50:13.643Z,86.08
2017-08-08T03:51:13.616Z,86.08
2017-08-08T03:52:13.592Z,86.47
2017-08-08T03:53:13.572Z,86.47
2017-08-08T03:54:13.548Z,86.18
2017-08-08T03:55:13.576Z,86.18
2017-08-08T03:56:13.508Z,86.14
2017-08-08T03:57:13.480Z,86.23
2017-08-08T03:58:13.459Z,86.37
2017-08-08T03:59:13.439Z,86.37
2017-08-08T04:00:13.413Z,86.28
2017-08-08T04:01:13.392Z,86.28
2017-08-08T04:02:13.367Z,86.47
2017-08-08T04:03:13.346Z,85.99
2017-08-08T04:04:13.322Z,85.99
2017-08-08T04:05:13.306Z,86.18
2017-08-08T04:06:13.277Z,85.8
2017-08-08T04:07:13.257Z,86.18
2017-08-08T04:08:13.236Z,86.18
2017-08-08T04:09:12.917Z,85.99
2017-08-08T04:10:12.892Z,86.18
2017-08-08T04:11:13.168Z,86.47
2017-08-08T04:12:12.844Z,85.8
2017-08-08T04:13:12.821Z,85.89
2017-08-08T04:14:13.099Z,86.08
2017-08-08T04:15:13.075Z,86.08
2017-08-08T04:16:13.056Z,85.99
2017-08-08T04:17:13.040Z,85.8
2017-08-08T04:18:13.011Z,85.8
2017-08-08T04:19:12.987Z,85.61
2017-08-08T04:20:12.971Z,85.61
2017-08-08T04:21:12.642Z,85.99
2017-08-08T04:22:12.920Z,85.89
2017-08-08T04:23:12.898Z,85.41
2017-08-08T04:24:12.575Z,85.13
2017-08-08T04:25:12.850Z,85.32
2017-08-08T04:26:12.839Z,85.32
2017-08-08T04:27:12.804Z,84.55
2017-08-08T04:28:12.785Z,85.03
2017-08-08T04:29:12.762Z,85.13
2017-08-08T04:30:12.741Z,85.13
2017-08-08T04:31:12.714Z,84.84
2017-08-08T04:32:12.696Z,84.55
2017-08-08T04:33:12.732Z,84.55
2017-08-08T04:34:12.651Z,84.27
2017-08-08T04:35:12.627Z,84.55
2017-08-08T04:36:12.606Z,84.46
2017-08-08T04:37:12.580Z,84.08
2017-08-08T04:38:12.558Z,84.08
2017-08-08T04:39:12.543Z,83.98
2017-08-08T04:40:12.514Z,84.22
2017-08-08T04:41:12.496Z,84.46
2017-08-08T04:42:12.471Z,84.31
2017-08-08T04:43:12.155Z,84.31
2017-08-08T04:44:12.427Z,83.89
2017-08-08T04:45:12.407Z,84.08
2017-08-08T04:46:12.382Z,83.83
2017-08-08T04:47:12.360Z,83.26
2017-08-08T04:48:12.340Z,83.54
2017-08-08T04:49:12.316Z,83.64
2017-08-08T04:50:12.296Z,83.36
2017-08-08T04:51:12.274Z,83.45
2017-08-08T04:52:11.955Z,83.73
2017-08-08T04:53:12.228Z,83.36
2017-08-08T04:54:12.209Z,83.45
2017-08-08T04:55:12.184Z,84.12
2017-08-08T04:56:12.167Z,83.93
2017-08-08T04:57:12.151Z,84.02
2017-08-08T04:58:12.123Z,83.64
2017-08-08T04:59:12.099Z,83.54
2017-08-08T05:00:11.781Z,83.73
2017-08-08T05:01:12.056Z,83.64
2017-08-08T05:02:12.031Z,83.73
2017-08-08T05:03:12.014Z,83.64
2017-08-08T05:04:11.988Z,83.36
2017-08-08T05:05:11.966Z,83.06
2017-08-08T05:06:11.946Z,83.16
2017-08-08T05:07:11.928Z,83.36
2017-08-08T05:08:11.904Z,82.97
2017-08-08T05:09:11.880Z,83.45
2017-08-08T05:10:11.563Z,83.36
2017-08-08T05:11:11.836Z,83.26
2017-08-08T05:12:11.817Z,83.39
2017-08-08T05:13:11.799Z,82.73
2017-08-08T05:14:11.775Z,82.63
2017-08-08T05:15:11.753Z,82.82
2017-08-08T05:16:11.731Z,82.63
2017-08-08T05:17:11.708Z,82.92
2017-08-08T05:18:11.688Z,82.87
2017-08-08T05:19:11.670Z,82.49
2017-08-08T05:20:11.644Z,82.63
2017-08-08T05:21:11.626Z,82.63
2017-08-08T05:22:11.601Z,82.43
2017-08-08T05:23:11.580Z,82.34
2017-08-08T05:24:11.264Z,82.63
2017-08-08T05:25:11.539Z,82.43
2017-08-08T05:26:11.520Z,82.24
2017-08-08T05:27:11.498Z,82.63
2017-08-08T05:28:11.484Z,82.06
2017-08-08T05:29:11.457Z,81.86
2017-08-08T05:30:11.435Z,81.96
2017-08-08T05:31:11.422Z,82.15
2017-08-08T05:32:11.393Z,81.48
2017-08-08T05:33:11.369Z,81.77
2017-08-08T05:34:11.345Z,81.2
2017-08-08T05:35:11.325Z,81.48
2017-08-08T05:36:11.308Z,81.29
2017-08-08T05:37:11.284Z,81.2
2017-08-08T05:38:11.269Z,81.38
2017-08-08T05:39:11.242Z,81.1
2017-08-08T05:40:11.220Z,81
2017-08-08T05:41:11.201Z,81.13
2017-08-08T05:42:11.181Z,81.33
2017-08-08T05:43:11.158Z,81.29
2017-08-08T05:44:10.839Z,80.9
2017-08-08T05:45:11.117Z,80.85
2017-08-08T05:46:11.095Z,81.13
2017-08-08T05:47:11.074Z,80.47
2017-08-08T05:48:11.057Z,80.47
2017-08-08T05:49:11.033Z,80.47
2017-08-08T05:50:11.015Z,80.27
2017-08-08T05:51:10.995Z,80.08
2017-08-08T05:52:10.971Z,79.99
2017-08-08T05:53:10.957Z,79.89
2017-08-08T05:54:10.933Z,80.18
2017-08-08T05:55:10.913Z,80.37
2017-08-08T05:56:10.892Z,79.99
2017-08-08T05:57:10.871Z,80.18
2017-08-08T05:58:10.853Z,79.89
2017-08-08T05:59:10.836Z,80.18
2017-08-08T06:00:10.813Z,79.7
2017-08-08T06:01:10.791Z,79.51
2017-08-08T06:02:10.769Z,79.83
2017-08-08T06:03:10.749Z,79.45
2017-08-08T06:04:10.733Z,78.97
2017-08-08T06:05:10.415Z,78.78
2017-08-08T06:06:10.715Z,78.02
2017-08-08T06:07:10.373Z,77.48
2017-08-08T06:08:10.652Z,77.29
2017-08-08T06:09:10.634Z,77
2017-08-08T06:10:10.614Z,76.46
2017-08-08T06:11:10.597Z,75.98
2017-08-08T06:12:10.575Z,75.98
2017-08-08T06:13:10.556Z,75.98
2017-08-08T06:14:10.538Z,75.79
2017-08-08T06:15:10.528Z,75.6
2017-08-08T06:16:10.502Z,75.6
2017-08-08T06:17:10.481Z,75.31
2017-08-08T06:18:10.170Z,75.4
2017-08-08T06:19:10.449Z,74.73
2017-08-08T06:20:10.427Z,74.68
2017-08-08T06:21:10.410Z,74.26
2017-08-08T06:22:10.392Z,74.68
2017-08-08T06:23:10.375Z,74.44
2017-08-08T06:24:10.359Z,74.68
2017-08-08T06:25:10.342Z,74.1
2017-08-08T06:26:10.321Z,74.01
2017-08-08T06:27:10.305Z,73.72
2017-08-08T06:28:10.286Z,73.14
2017-08-08T06:29:10.270Z,73.52
2017-08-08T06:30:10.291Z,72.85
2017-08-08T06:31:10.237Z,73.14
2017-08-08T06:32:10.214Z,73.33
2017-08-08T06:33:10.201Z,72.75
2017-08-08T06:34:10.184Z,72.95
2017-08-08T06:35:10.487Z,72.66
2017-08-08T06:36:10.371Z,72.75
2017-08-08T06:37:10.142Z,72.85
2017-08-08T06:38:10.112Z,73.24
2017-08-08T06:39:09.889Z,72.95
2017-08-08T06:40:10.239Z,73.24
2017-08-08T06:41:10.245Z,72.56
2017-08-08T06:42:10.420Z,72.47
2017-08-08T06:43:10.142Z,72.5
2017-08-08T06:44:10.012Z,71.35
2017-08-08T06:45:09.989Z,71.93
2017-08-08T06:46:09.975Z,71.35
2017-08-08T06:47:09.954Z,71.16
2017-08-08T06:48:09.937Z,71.1
2017-08-08T06:49:09.925Z,70.62
2017-08-08T06:50:09.911Z,70.43
2017-08-08T06:51:09.919Z,69.85
2017-08-08T06:52:09.873Z,70.04
2017-08-08T06:53:10.018Z,69.95
2017-08-08T06:54:09.842Z,69.5
2017-08-08T06:55:09.527Z,69.02
2017-08-08T06:56:09.810Z,69.21
2017-08-08T06:57:09.794Z,69.02
2017-08-08T06:58:10.475Z,69.12
2017-08-08T06:59:10.777Z,68.35
2017-08-08T07:00:09.924Z,68.73
2017-08-08T07:01:09.794Z,68.35
2017-08-08T07:02:09.533Z,67.96
2017-08-08T07:03:09.698Z,68.35
2017-08-08T07:04:09.687Z,67.71
2017-08-08T07:05:09.700Z,67.61
2017-08-08T07:06:09.380Z,67.51
2017-08-08T07:07:09.639Z,67.22
2017-08-08T07:08:09.622Z,67.32
2017-08-08T07:09:09.604Z,67.13
2017-08-08T07:10:09.638Z,67.22
2017-08-08T07:11:09.573Z,66.94
2017-08-08T07:12:09.559Z,67.22
2017-08-08T07:13:09.544Z,66.97
2017-08-08T07:14:09.527Z,66.78
2017-08-08T07:15:09.529Z,66.49
2017-08-08T07:16:09.496Z,66.01
2017-08-08T07:17:09.480Z,66.1
2017-08-08T07:18:09.472Z,65.63
2017-08-08T07:19:09.453Z,65.33
2017-08-08T07:20:09.435Z,64.89
2017-08-08T07:21:09.423Z,65.27
2017-08-08T07:22:09.407Z,64.21
2017-08-08T07:23:09.395Z,64.31
2017-08-08T07:24:09.377Z,64.05
2017-08-08T07:25:09.364Z,63.95
2017-08-08T07:26:09.350Z,63.85
2017-08-08T07:27:09.335Z,63.95
2017-08-08T07:28:09.320Z,63.57
2017-08-08T07:29:09.306Z,63.09
2017-08-08T07:30:08.997Z,63.21
2017-08-08T07:31:09.277Z,63.41
2017-08-08T07:32:09.264Z,62.93
2017-08-08T07:33:09.246Z,62.54
2017-08-08T07:34:09.244Z,62.45
2017-08-08T07:35:09.219Z,62.54
2017-08-08T07:36:09.207Z,62.63
2017-08-08T07:37:09.188Z,62.54
2017-08-08T07:38:09.177Z,62.73
2017-08-08T07:39:09.162Z,62.73
2017-08-08T07:40:09.148Z,62.54
2017-08-08T07:41:09.134Z,62.45
2017-08-08T07:42:09.118Z,62.73
2017-08-08T07:43:09.105Z,62.45
2017-08-08T07:44:09.092Z,62.54
2017-08-08T07:45:09.074Z,62.45
2017-08-08T07:46:09.061Z,61.96
2017-08-08T07:47:09.048Z,62.06
2017-08-08T07:48:09.033Z,61.9
2017-08-08T07:49:08.740Z,61.61
2017-08-08T07:50:08.708Z,61.32
2017-08-08T07:51:08.990Z,61.61
2017-08-08T07:52:08.978Z,61.13
2017-08-08T07:53:08.963Z,60.74
2017-08-08T07:54:08.949Z,60.74
2017-08-08T07:55:08.934Z,60.86
2017-08-08T07:56:08.920Z,60.68
2017-08-08T07:57:08.905Z,60.1
2017-08-08T07:58:08.896Z,59.9
2017-08-08T07:59:08.877Z,59.42
2017-08-08T08:00:08.866Z,59.23
2017-08-08T08:01:08.849Z,58.75
2017-08-08T08:02:08.835Z,58.45
2017-08-08T08:03:08.829Z,58.55
2017-08-08T08:04:08.990Z,58.17
2017-08-08T08:05:08.800Z,57.42
2017-08-08T08:06:08.788Z,57.52
2017-08-08T08:07:08.771Z,56.84
2017-08-08T08:08:08.805Z,56.94
2017-08-08T08:09:08.739Z,56.65
2017-08-08T08:10:08.723Z,56.84
2017-08-08T08:11:08.714Z,56.56
2017-08-08T08:12:09.119Z,56.77
2017-08-08T08:13:08.687Z,56.94
2017-08-08T08:14:08.707Z,57.04
2017-08-08T08:15:08.989Z,57.81
2017-08-08T08:16:08.644Z,58.29
2017-08-08T08:17:08.627Z,58.58
2017-08-08T08:18:08.319Z,58.87
2017-08-08T08:19:08.605Z,59.25
2017-08-08T08:20:08.628Z,59.35
2017-08-08T08:21:08.682Z,59.8
2017-08-08T08:22:08.262Z,60.03
2017-08-08T08:23:08.652Z,60.28
2017-08-08T08:24:08.506Z,60.58
2017-08-08T08:25:09.275Z,60.96
2017-08-08T08:26:08.505Z,61.35
2017-08-08T08:27:08.492Z,61.74
2017-08-08T08:28:08.182Z,62.22
2017-08-08T08:29:08.465Z,62.02
2017-08-08T08:30:08.448Z,62.02
2017-08-08T08:31:08.137Z,61.83
2017-08-08T08:32:08.419Z,62.51
2017-08-08T08:33:08.407Z,62.6
2017-08-08T08:34:08.390Z,62.51
2017-08-08T08:35:08.439Z,62.6
2017-08-08T08:36:08.363Z,62.6
2017-08-08T08:37:08.357Z,62.31
2017-08-08T08:38:08.336Z,62.41
2017-08-08T08:39:08.321Z,62.6
2017-08-08T08:40:08.346Z,62.31
2017-08-08T08:41:08.295Z,62.51
2017-08-08T08:42:08.283Z,62.6
2017-08-08T08:43:08.270Z,62.99
2017-08-08T08:44:08.252Z,62.89
2017-08-08T08:45:08.240Z,62.7
2017-08-08T08:46:08.223Z,62.99
2017-08-08T08:47:08.215Z,62.92
2017-08-08T08:48:08.199Z,62.99
2017-08-08T08:49:08.182Z,62.82
2017-08-08T08:50:08.025Z,62.44
2017-08-08T08:51:08.157Z,62.73
2017-08-08T08:52:08.142Z,62.44
2017-08-08T08:53:08.129Z,61.96
2017-08-08T08:54:08.120Z,62.15
2017-08-08T08:55:08.102Z,62.34
2017-08-08T08:56:08.087Z,61.8
2017-08-08T08:57:08.078Z,61.51
2017-08-08T08:58:08.061Z,61.41
2017-08-08T08:59:08.045Z,61.38
2017-08-08T09:00:08.033Z,61.6
2017-08-08T09:01:08.023Z,61.7
2017-08-08T09:02:08.009Z,61.6
2017-08-08T09:03:08.003Z,61.22
2017-08-08T09:04:07.985Z,60.73
2017-08-08T09:05:07.972Z,60.93
2017-08-08T09:06:07.955Z,60.83
2017-08-08T09:07:07.947Z,60.73
2017-08-08T09:08:07.927Z,60.64
2017-08-08T09:09:07.913Z,60.54
2017-08-08T09:10:07.902Z,60.47
2017-08-08T09:11:07.885Z,60.67
2017-08-08T09:12:07.575Z,60.47
2017-08-08T09:13:07.862Z,59.89
2017-08-08T09:14:07.845Z,60.38
2017-08-08T09:15:07.835Z,59.99
2017-08-08T09:16:08.066Z,59.8
2017-08-08T09:17:07.811Z,59.8
2017-08-08T09:18:07.793Z,59.6
2017-08-08T09:19:07.782Z,59.31
2017-08-08T09:20:07.764Z,59.12
2017-08-08T09:21:07.753Z,59.31
2017-08-08T09:22:07.738Z,58.73
2017-08-08T09:23:07.749Z,58.64
2017-08-08T09:24:07.711Z,58.35
2017-08-08T09:25:07.703Z,58.25
2017-08-08T09:26:07.684Z,57.99
2017-08-08T09:27:07.677Z,57.51
2017-08-08T09:28:07.656Z,56.83
2017-08-08T09:29:07.646Z,56.54
2017-08-08T09:30:07.632Z,57.03
2017-08-08T09:31:07.617Z,56.54
2017-08-08T09:32:07.610Z,56.45
2017-08-08T09:33:07.592Z,56.15
2017-08-08T09:34:07.575Z,55.96
2017-08-08T09:35:07.565Z,55.67
2017-08-08T09:36:07.550Z,56.05
2017-08-08T09:37:07.543Z,56.35
2017-08-08T09:38:07.522Z,55.38
2017-08-08T09:39:07.512Z,54.9
2017-08-08T09:40:07.499Z,55.19
2017-08-08T09:41:07.482Z,55.09
2017-08-08T09:42:07.470Z,55.19
2017-08-08T09:43:07.457Z,54.61
2017-08-08T09:44:07.446Z,54.32
2017-08-08T09:45:07.430Z,54.51
2017-08-08T09:46:07.415Z,54.61
2017-08-08T09:47:07.404Z,54.53
2017-08-08T09:48:07.447Z,54.44
2017-08-08T09:49:07.208Z,53.77
2017-08-08T09:50:07.392Z,53.57
2017-08-08T09:51:07.569Z,53.77
2017-08-08T09:52:07.343Z,53.19
2017-08-08T09:53:07.372Z,53.19
2017-08-08T09:54:07.311Z,53.38
2017-08-08T09:55:07.297Z,53.38
2017-08-08T09:56:07.281Z,53.47
2017-08-08T09:57:07.272Z,52.89
2017-08-08T09:58:07.257Z,52.41
2017-08-08T09:59:07.248Z,52.7
2017-08-08T10:00:07.235Z,52.61
2017-08-08T10:01:06.922Z,52.31
2017-08-08T10:02:07.231Z,52.14
2017-08-08T10:03:07.194Z,52.24
2017-08-08T10:04:06.958Z,51.93
2017-08-08T10:05:07.170Z,51.76
2017-08-08T10:06:07.157Z,51.86
2017-08-08T10:07:07.141Z,51.56
2017-08-08T10:08:07.129Z,51.56
2017-08-08T10:09:07.116Z,51.66
2017-08-08T10:10:07.219Z,51.28
2017-08-08T10:11:07.090Z,51.08
2017-08-08T10:12:07.088Z,50.98
2017-08-08T10:13:07.394Z,50.98
2017-08-08T10:14:07.144Z,51.08
2017-08-08T10:15:07.067Z,51.28
2017-08-08T10:16:07.028Z,51.18
2017-08-08T10:17:07.012Z,51.37
2017-08-08T10:18:06.998Z,51.08
2017-08-08T10:19:06.989Z,51.08
2017-08-08T10:20:06.993Z,50.96
2017-08-08T10:21:06.962Z,51.15
2017-08-08T10:22:06.949Z,51.06
2017-08-08T10:23:06.938Z,50.96
2017-08-08T10:24:06.928Z,51.06
2017-08-08T10:25:06.914Z,51.06
2017-08-08T10:26:06.899Z,51.15
2017-08-08T10:27:07.004Z,51.64
2017-08-08T10:28:07.078Z,51.35
2017-08-08T10:29:06.857Z,51.64
2017-08-08T10:30:06.843Z,51.93
2017-08-08T10:31:06.536Z,51.93
2017-08-08T10:32:06.523Z,51.93
2017-08-08T10:33:06.509Z,52.02
2017-08-08T10:34:06.496Z,52.61
2017-08-08T10:35:06.485Z,52.8
2017-08-08T10:36:06.552Z,53.38
2017-08-08T10:37:06.756Z,53.55
2017-08-08T10:38:06.755Z,54.13
2017-08-08T10:39:06.735Z,54.32
2017-08-08T10:40:06.718Z,55.09
2017-08-08T10:41:06.403Z,55.19
2017-08-08T10:42:06.686Z,55.47
2017-08-08T10:43:06.671Z,56.25
2017-08-08T10:44:06.660Z,56.03
2017-08-08T10:45:06.647Z,56.9
2017-08-08T10:46:06.633Z,56.9
2017-08-08T10:47:06.619Z,57.29
2017-08-08T10:48:06.604Z,57.38
2017-08-08T10:49:06.588Z,57.48
2017-08-08T10:50:06.579Z,58.83
2017-08-08T10:51:06.561Z,59.02
2017-08-08T10:52:06.545Z,59.19
2017-08-08T10:53:06.543Z,59.86
2017-08-08T10:54:06.521Z,60.35
2017-08-08T10:55:06.504Z,60.83
2017-08-08T10:56:06.494Z,60.64
2017-08-08T10:57:06.480Z,60.93
2017-08-08T10:58:06.462Z,60.83
2017-08-08T10:59:06.444Z,61.41
2017-08-08T11:00:06.432Z,62.18
2017-08-08T11:01:06.418Z,62.76
2017-08-08T11:02:06.405Z,62.76
2017-08-08T11:03:06.389Z,63.73
2017-08-08T11:04:06.378Z,64.01
2017-08-08T11:05:06.357Z,64.08
2017-08-08T11:06:06.349Z,64.28
2017-08-08T11:07:06.030Z,64.08
2017-08-08T11:08:06.314Z,64.56
2017-08-08T11:09:06.304Z,64.37
2017-08-08T11:10:06.285Z,65.05
2017-08-08T11:11:06.412Z,65.24
2017-08-08T11:12:06.337Z,64.92
2017-08-08T11:13:06.333Z,65.69
2017-08-08T11:14:06.124Z,65.88
2017-08-08T11:15:06.005Z,66.46
2017-08-08T11:16:06.193Z,66.08
2017-08-08T11:17:06.177Z,66.46
2017-08-08T11:18:06.165Z,67.04
2017-08-08T11:19:06.145Z,66.94
2017-08-08T11:20:06.132Z,67.43
2017-08-08T11:21:06.118Z,67.43
2017-08-08T11:22:05.804Z,67.62
2017-08-08T11:23:06.089Z,67.52
2017-08-08T11:24:06.082Z,68.1
2017-08-08T11:25:06.055Z,68.65
2017-08-08T11:26:06.039Z,68.87
2017-08-08T11:27:06.026Z,68.84
2017-08-08T11:28:06.011Z,69.13
2017-08-08T11:29:05.994Z,69.51
2017-08-08T11:30:06.081Z,69.8
2017-08-08T11:31:05.964Z,69.8
2017-08-08T11:32:05.949Z,70.38
2017-08-08T11:33:05.930Z,70.64
2017-08-08T11:34:05.918Z,71.22
2017-08-08T11:35:05.898Z,71.5
2017-08-08T11:36:05.885Z,71.41
2017-08-08T11:37:05.572Z,71.98
2017-08-08T11:38:05.604Z,72.66
2017-08-08T11:39:05.840Z,72.85
2017-08-08T11:40:05.584Z,73.53
2017-08-08T11:41:05.829Z,73.53
2017-08-08T11:42:05.940Z,74.07
2017-08-08T11:43:05.771Z,75.03
2017-08-08T11:44:05.461Z,74.65
2017-08-08T11:45:05.745Z,75.13
2017-08-08T11:46:05.726Z,75.61
2017-08-08T11:47:05.712Z,76.28
2017-08-08T11:48:05.693Z,76.48
2017-08-08T11:49:05.686Z,76.96
2017-08-08T11:50:05.660Z,77.53
2017-08-08T11:51:05.998Z,78.21
2017-08-08T11:52:05.342Z,78.4
2017-08-08T11:53:05.409Z,78.59
2017-08-08T11:54:05.697Z,78.88
2017-08-08T11:55:05.771Z,79.17
2017-08-08T11:56:05.573Z,79.46
2017-08-08T11:57:05.548Z,79.46
2017-08-08T11:58:05.549Z,79.75
2017-08-08T11:59:05.229Z,79.85
2017-08-08T12:00:05.249Z,79.9
2017-08-08T12:01:05.480Z,80
2017-08-08T12:02:05.461Z,79.61
2017-08-08T12:03:05.446Z,79.61
2017-08-08T12:04:05.431Z,80.04
2017-08-08T12:05:05.417Z,80.19
2017-08-08T12:06:05.405Z,80.38
2017-08-08T12:07:05.086Z,80.68
2017-08-08T12:08:05.367Z,80.38
2017-08-08T12:09:05.350Z,80.38
2017-08-08T12:10:05.337Z,80.38
2017-08-08T12:11:05.322Z,80.48
2017-08-08T12:12:05.300Z,80.58
2017-08-08T12:13:04.985Z,80.68
2017-08-08T12:14:04.970Z,80.87
2017-08-08T12:15:05.153Z,80.77
2017-08-08T12:16:05.236Z,80.52
2017-08-08T12:17:04.941Z,80.71
2017-08-08T12:18:05.207Z,80.68
2017-08-08T12:19:05.185Z,80.81
2017-08-08T12:20:04.877Z,80.71
2017-08-08T12:21:05.153Z,80.43
2017-08-08T12:22:05.136Z,80.43
2017-08-08T12:23:05.121Z,80.56
2017-08-08T12:24:05.155Z,80.56
2017-08-08T12:25:04.794Z,80.56
2017-08-08T12:26:05.083Z,80.37
2017-08-08T12:27:05.060Z,80.27
2017-08-08T12:28:05.041Z,80.76
2017-08-08T12:29:05.029Z,80.46
2017-08-08T12:30:05.013Z,79.69
2017-08-08T12:31:04.998Z,80.37
2017-08-08T12:32:04.981Z,79.89
2017-08-08T12:33:04.967Z,80.41
2017-08-08T12:34:05.574Z,80.69
2017-08-08T12:35:04.635Z,80.69
2017-08-08T12:36:04.622Z,80.18
2017-08-08T12:37:04.904Z,80.12
2017-08-08T12:38:04.900Z,80.02
2017-08-08T12:39:04.874Z,80.41
2017-08-08T12:40:04.855Z,80.12
2017-08-08T12:41:04.545Z,80.18
2017-08-08T12:42:04.531Z,79.98
2017-08-08T12:43:04.810Z,80.56
2017-08-08T12:44:04.802Z,79.89
2017-08-08T12:45:04.483Z,80.27
2017-08-08T12:46:04.764Z,79.89
2017-08-08T12:47:04.454Z,80.56
2017-08-08T12:48:04.737Z,80.56
2017-08-08T12:49:04.747Z,80.37
2017-08-08T12:50:04.708Z,80.27
2017-08-08T12:51:04.706Z,80.46
2017-08-08T12:52:04.377Z,80.56
2017-08-08T12:53:04.659Z,81.04
2017-08-08T12:54:04.644Z,80.76